Time;durP1;ratioP1;P1;durP2;ratioP2;P2;SDS_P1;SDS_P2;PMS_P1;PMS_P2;Temp;Humidity;BMP_temperature;BMP_pressure;BME280_temperature;BME280_humidity;BME280_pressure;Samples;Min_cycle;Max_cycle;Signal;HPM_P1;HPM_P2
2022/02/12 02:27:30;;;;;;;9.00;4.65;;;-0.10;99.90;;;;;;1382350;23;21668;-93
2022/02/12 02:29:56;;;;;;;8.40;4.32;;;-0.20;99.90;;;;;;4976838;28;20500;-93
2022/02/12 02:32:22;;;;;;;9.48;4.68;;;-0.20;99.90;;;;;;4978426;28;20052;-96
2022/02/12 02:34:53;;;;;;;8.60;4.53;;;-0.20;99.90;;;;;;4978117;28;20034;-94
2022/02/12 02:37:20;;;;;;;8.48;4.57;;;-0.20;99.90;;;;;;4978053;28;20522;-96
2022/02/12 02:39:46;;;;;;;8.77;4.15;;;-0.20;99.90;;;;;;4978418;28;20027;-95
2022/02/12 02:42:12;;;;;;;7.68;4.38;;;-0.20;99.90;;;;;;4978398;28;20113;-94
2022/02/12 02:44:38;;;;;;;9.13;4.43;;;-0.20;99.90;;;;;;4978050;28;20118;-92
2022/02/12 02:47:32;;;;;;;7.47;4.05;;;-0.20;99.90;;;;;;4978133;28;20041;-93
2022/02/12 02:49:50;;;;;;;8.88;3.70;;;-0.20;99.90;;;;;;4995470;28;20522;-94
2022/02/12 02:57:45;;;;;;;8.68;4.13;;;-0.20;99.90;;;;;;4999331;28;20041;-93
2022/02/12 03:00:11;;;;;;;10.07;4.35;;;-0.30;99.90;;;;;;4982397;28;20070;-94
2022/02/12 03:02:37;;;;;;;10.05;4.07;;;-0.30;99.90;;;;;;4981891;28;20030;-93
2022/02/12 03:05:03;;;;;;;7.75;3.78;;;-0.30;99.90;;;;;;4981913;28;20023;-93
2022/02/12 03:07:29;;;;;;;6.25;3.78;;;-0.30;99.90;;;;;;4981829;28;20061;-94
2022/02/12 03:09:55;;;;;;;7.68;4.13;;;-0.30;99.90;;;;;;4981806;28;20023;-93
2022/02/12 03:12:20;;;;;;;7.43;4.30;;;-0.40;99.90;;;;;;4981846;28;20049;-94
2022/02/12 03:14:46;;;;;;;10.43;4.38;;;-0.30;99.90;;;;;;4981992;28;20081;-94
2022/02/12 03:17:12;;;;;;;6.68;4.05;;;-0.30;99.90;;;;;;4982125;28;20030;-93
2022/02/12 03:19:37;;;;;;;8.70;4.72;;;-0.30;99.90;;;;;;4981584;28;20085;-93
2022/02/12 03:22:03;;;;;;;9.82;5.35;;;-0.40;99.90;;;;;;4981459;28;20559;-92
2022/02/12 03:24:32;;;;;;;11.63;5.15;;;-0.40;99.90;;;;;;4981264;28;20161;-93
2022/02/12 03:26:58;;;;;;;10.43;4.80;;;-0.40;99.90;;;;;;4980768;28;20481;-94
2022/02/12 03:29:24;;;;;;;9.40;4.80;;;-0.30;99.90;;;;;;4980660;28;20043;-93
2022/02/12 03:31:50;;;;;;;11.38;4.90;;;-0.40;99.90;;;;;;4981396;28;20033;-92
2022/02/12 03:34:16;;;;;;;9.48;4.28;;;-0.40;99.90;;;;;;4981021;28;20062;-93
2022/02/12 03:36:41;;;;;;;12.52;5.85;;;-0.40;99.90;;;;;;4981224;28;20050;-93
2022/02/12 03:39:07;;;;;;;9.10;4.78;;;-0.40;99.90;;;;;;4981265;28;20031;-94
2022/02/12 03:41:33;;;;;;;7.60;4.57;;;-0.40;99.90;;;;;;4981278;28;20035;-93
2022/02/12 03:43:59;;;;;;;10.40;4.43;;;-0.50;99.90;;;;;;4981050;28;20019;-93
2022/02/12 03:46:24;;;;;;;7.40;4.18;;;-0.50;99.90;;;;;;4981139;28;20062;-93
2022/02/12 03:48:50;;;;;;;7.90;4.15;;;-0.50;99.90;;;;;;4980612;28;20073;-93
2022/02/12 03:51:18;;;;;;;9.27;4.43;;;-0.50;99.90;;;;;;4980108;28;20495;-93
2022/02/12 03:53:45;;;;;;;8.35;4.57;;;-0.50;99.90;;;;;;4980213;28;20499;-94
2022/02/12 03:56:10;;;;;;;9.35;4.78;;;-0.50;99.90;;;;;;4980016;28;20046;-93
2022/02/12 03:58:36;;;;;;;7.25;4.45;;;-0.50;99.90;;;;;;4980337;28;20026;-93
2022/02/12 04:01:02;;;;;;;9.82;4.65;;;-0.50;99.90;;;;;;4980197;28;20102;-91
2022/02/12 04:03:27;;;;;;;7.22;4.05;;;-0.50;99.90;;;;;;4979809;28;20515;-92
2022/02/12 04:05:53;;;;;;;8.88;4.65;;;-0.50;99.90;;;;;;4980949;28;20109;-93
2022/02/12 04:08:21;;;;;;;8.95;4.07;;;-0.50;99.90;;;;;;4980379;28;20089;-92
2022/02/12 04:10:48;;;;;;;7.20;3.85;;;-0.50;99.90;;;;;;4980753;28;20077;-93
2022/02/12 04:13:14;;;;;;;7.05;4.18;;;-0.50;99.90;;;;;;4980546;28;20031;-93
2022/02/12 04:15:40;;;;;;;6.40;3.72;;;-0.60;99.90;;;;;;4980757;28;20034;-93
2022/02/12 04:18:09;;;;;;;7.50;3.70;;;-0.60;99.90;;;;;;4981247;28;20464;-93
2022/02/12 04:20:35;;;;;;;7.90;3.85;;;-0.60;99.90;;;;;;4980788;28;20041;-94
2022/02/12 04:23:00;;;;;;;6.95;3.97;;;-0.50;99.90;;;;;;4980441;28;20416;-93
2022/02/12 04:25:27;;;;;;;8.43;3.60;;;-0.60;99.90;;;;;;4980551;28;20035;-93
2022/02/12 04:27:53;;;;;;;8.35;3.75;;;-0.50;99.90;;;;;;4980232;28;20484;-93
2022/02/12 04:30:19;;;;;;;9.85;3.75;;;-0.60;99.90;;;;;;4980013;28;20121;-93
2022/02/12 04:32:46;;;;;;;8.32;4.20;;;-0.60;99.90;;;;;;4980177;28;20365;-93
2022/02/12 04:35:13;;;;;;;8.60;4.82;;;-0.50;99.90;;;;;;4979908;28;20106;-93
2022/02/12 04:37:40;;;;;;;9.32;3.58;;;-0.50;99.90;;;;;;4979756;28;20058;-93
2022/02/12 04:40:06;;;;;;;8.52;3.60;;;-0.50;99.90;;;;;;4980020;28;20019;-94
2022/02/12 04:42:32;;;;;;;6.43;3.45;;;-0.50;99.90;;;;;;4979510;28;20093;-93
2022/02/12 04:44:57;;;;;;;7.05;3.22;;;-0.50;99.90;;;;;;4979743;28;20501;-93
2022/02/12 04:47:24;;;;;;;7.15;3.80;;;-0.60;99.90;;;;;;4979417;28;20035;-92
2022/02/12 04:49:51;;;;;;;9.15;3.97;;;-0.60;99.90;;;;;;4979937;28;20038;-94
2022/02/12 04:52:19;;;;;;;7.60;3.63;;;-0.60;99.90;;;;;;4979373;28;20026;-92
2022/02/12 04:54:46;;;;;;;8.30;3.53;;;-0.60;99.90;;;;;;4979758;28;20065;-94
2022/02/12 04:57:12;;;;;;;7.60;3.30;;;-0.70;99.90;;;;;;4979499;28;20538;-92
2022/02/12 04:59:38;;;;;;;8.05;3.42;;;-0.70;99.90;;;;;;4979681;28;20066;-92
2022/02/12 05:02:04;;;;;;;7.10;3.55;;;-0.70;99.90;;;;;;4979844;28;20038;-92
2022/02/12 05:04:30;;;;;;;7.15;3.55;;;-0.80;99.90;;;;;;4979511;28;20245;-91
2022/02/12 05:06:56;;;;;;;8.30;3.88;;;-0.80;99.90;;;;;;4979440;28;20027;-93
2022/02/12 05:09:22;;;;;;;7.18;3.60;;;-0.80;99.90;;;;;;4979624;28;20022;-93
2022/02/12 05:11:50;;;;;;;7.57;3.72;;;-0.80;99.90;;;;;;4979953;28;20038;-93
2022/02/12 05:14:17;;;;;;;8.07;3.33;;;-0.80;99.90;;;;;;4979355;28;20026;-93
2022/02/12 05:16:43;;;;;;;9.07;3.58;;;-0.90;99.90;;;;;;4979900;28;20042;-94
2022/02/12 05:19:09;;;;;;;6.25;3.33;;;-0.90;99.90;;;;;;4979566;28;20476;-94
2022/02/12 05:21:35;;;;;;;7.10;3.70;;;-0.90;99.90;;;;;;4980031;28;20106;-93
2022/02/12 05:24:00;;;;;;;6.45;3.58;;;-0.90;99.90;;;;;;4980212;28;20035;-92
2022/02/12 05:26:27;;;;;;;9.63;3.40;;;-0.90;99.90;;;;;;4980467;28;20050;-93
2022/02/12 05:28:53;;;;;;;7.45;3.42;;;-0.90;99.90;;;;;;4978105;28;20050;-93
2022/02/12 05:31:19;;;;;;;5.93;3.10;;;-0.90;99.90;;;;;;4981732;28;20602;-91
2022/02/12 05:33:44;;;;;;;8.35;3.35;;;-1.00;99.90;;;;;;4981163;28;20061;-92
2022/02/12 05:36:11;;;;;;;6.85;3.00;;;-1.00;99.90;;;;;;4985471;28;20385;-92
2022/02/12 05:38:40;;;;;;;7.05;3.35;;;-1.00;99.90;;;;;;4983891;28;20050;-93
2022/02/12 05:41:07;;;;;;;7.05;3.42;;;-0.90;99.90;;;;;;4980121;28;20468;-93
2022/02/12 05:43:33;;;;;;;8.15;4.57;;;-1.00;99.90;;;;;;4990045;28;20027;-93
2022/02/12 05:46:02;;;;;;;6.35;3.22;;;-0.90;99.90;;;;;;4989721;28;20042;-92
2022/02/12 05:48:28;;;;;;;6.97;3.40;;;-0.90;99.90;;;;;;4988446;28;20026;-91
2022/02/12 05:50:54;;;;;;;9.10;4.55;;;-0.90;99.90;;;;;;4988547;28;20057;-91
2022/02/12 05:53:20;;;;;;;8.20;3.67;;;-0.90;99.90;;;;;;4986879;28;20034;-92
2022/02/12 05:55:46;;;;;;;9.80;4.35;;;-0.80;99.90;;;;;;4982100;28;20076;-92
2022/02/12 05:58:12;;;;;;;14.13;6.00;;;-0.70;99.90;;;;;;4980597;28;20035;-92
2022/02/12 06:00:38;;;;;;;21.92;8.15;;;-0.60;99.90;;;;;;4979767;28;20037;-91
2022/02/12 06:03:03;;;;;;;15.68;7.57;;;-0.50;99.90;;;;;;4979528;28;20408;-90
2022/02/12 06:05:29;;;;;;;22.48;9.05;;;-0.40;99.90;;;;;;4979290;28;20042;-93
2022/02/12 06:07:55;;;;;;;21.10;8.52;;;-0.30;99.90;;;;;;4978943;28;20041;-93
2022/02/12 06:10:21;;;;;;;20.75;10.15;;;-0.30;99.90;;;;;;4979245;28;20057;-92
2022/02/12 06:12:48;;;;;;;22.77;8.18;;;-0.20;99.90;;;;;;4979305;28;20030;-93
2022/02/12 06:15:13;;;;;;;15.98;7.85;;;-0.10;99.90;;;;;;4979132;28;20045;-93
2022/02/12 06:17:40;;;;;;;18.17;7.80;;;-0.20;99.90;;;;;;4979039;28;20031;-93
2022/02/12 06:20:06;;;;;;;17.13;8.07;;;-0.10;99.90;;;;;;4978830;28;20041;-92
2022/02/12 06:22:32;;;;;;;18.23;7.32;;;-0.10;99.90;;;;;;4979175;28;20069;-92
2022/02/12 06:24:58;;;;;;;15.85;8.02;;;-0.10;99.90;;;;;;4978725;28;20018;-92
2022/02/12 06:27:23;;;;;;;16.25;8.20;;;0.00;99.90;;;;;;4979090;28;20642;-93
2022/02/12 06:29:49;;;;;;;17.85;7.57;;;-0.10;99.90;;;;;;4978798;28;20496;-92
2022/02/12 06:32:14;;;;;;;19.65;8.00;;;-0.10;99.90;;;;;;4983805;28;20122;-93
2022/02/12 06:34:40;;;;;;;18.25;8.38;;;-0.10;99.90;;;;;;4986603;28;20062;-93
2022/02/12 06:37:06;;;;;;;17.02;7.22;;;-0.10;99.90;;;;;;4986848;28;20056;-92
2022/02/12 06:39:32;;;;;;;19.98;7.32;;;-0.10;99.90;;;;;;4987184;28;20081;-93
2022/02/12 06:41:58;;;;;;;20.65;7.65;;;-0.10;99.90;;;;;;4988726;28;20037;-93
2022/02/12 06:44:24;;;;;;;17.77;7.63;;;-0.10;99.90;;;;;;4985558;28;20121;-94
2022/02/12 06:46:50;;;;;;;16.15;8.23;;;-0.10;99.90;;;;;;4984192;28;20031;-93
2022/02/12 06:49:17;;;;;;;15.18;7.05;;;-0.10;99.90;;;;;;4983669;28;20031;-92
2022/02/12 06:51:42;;;;;;;10.82;7.05;;;0.00;99.90;;;;;;4982760;28;20117;-92
2022/02/12 06:54:08;;;;;;;16.40;8.38;;;0.00;99.90;;;;;;4982661;28;20077;-92
2022/02/12 06:56:34;;;;;;;13.18;6.65;;;0.00;99.90;;;;;;4982429;28;20049;-92
2022/02/12 06:59:00;;;;;;;19.55;7.72;;;0.00;99.90;;;;;;4983094;28;20033;-94
2022/02/12 07:01:26;;;;;;;20.27;8.40;;;0.00;99.90;;;;;;4984249;28;20117;-95
2022/02/12 07:03:52;;;;;;;22.98;9.23;;;0.00;99.90;;;;;;4983346;28;20027;-93
2022/02/12 07:06:18;;;;;;;20.52;8.65;;;0.00;99.90;;;;;;4982776;28;20034;-94
2022/02/12 07:08:44;;;;;;;18.05;7.18;;;0.00;99.90;;;;;;4982418;28;20531;-95
2022/02/12 07:11:10;;;;;;;17.13;6.90;;;0.00;99.90;;;;;;4981759;28;20034;-93
2022/02/12 07:13:36;;;;;;;17.75;7.40;;;0.10;99.90;;;;;;4984429;28;20061;-93
2022/02/12 07:16:02;;;;;;;15.80;8.00;;;0.10;99.90;;;;;;4984534;28;20114;-94
2022/02/12 07:18:31;;;;;;;16.58;7.45;;;0.20;99.90;;;;;;4986865;28;20054;-92
2022/02/12 07:20:57;;;;;;;18.80;7.75;;;0.20;99.90;;;;;;4985444;28;20500;-92
2022/02/12 07:23:22;;;;;;;14.75;6.68;;;0.20;99.90;;;;;;4982826;28;20069;-92
2022/02/12 07:25:50;;;;;;;16.08;8.32;;;0.20;99.90;;;;;;4982276;28;20030;-92
2022/02/12 07:28:16;;;;;;;21.20;7.68;;;0.20;99.90;;;;;;4978252;28;20053;-92
2022/02/12 07:30:42;;;;;;;14.00;6.20;;;0.20;99.90;;;;;;4978055;28;20039;-93
2022/02/12 07:33:08;;;;;;;18.55;7.75;;;0.30;99.90;;;;;;4977559;28;20035;-92
2022/02/12 07:35:34;;;;;;;20.00;6.65;;;0.30;99.90;;;;;;4978020;28;20034;-92
2022/02/12 07:38:00;;;;;;;20.55;6.68;;;0.30;99.90;;;;;;4980195;28;20082;-93
2022/02/12 07:40:26;;;;;;;17.85;6.43;;;0.30;99.90;;;;;;4981871;28;20033;-93
2022/02/12 07:42:52;;;;;;;16.95;5.88;;;0.40;99.90;;;;;;4980371;28;20081;-91
2022/02/12 07:45:18;;;;;;;15.05;6.13;;;0.40;99.90;;;;;;4980959;28;20121;-91
2022/02/12 07:47:45;;;;;;;20.02;6.47;;;0.40;99.90;;;;;;4981147;28;20077;-91
2022/02/12 07:50:13;;;;;;;18.30;6.80;;;0.50;99.90;;;;;;4981890;28;20050;-92
2022/02/12 07:52:42;;;;;;;12.18;5.80;;;0.50;99.90;;;;;;4981874;28;20034;-91
2022/02/12 07:55:07;;;;;;;11.80;5.93;;;0.50;99.90;;;;;;4980668;28;20400;-92
2022/02/12 07:57:33;;;;;;;15.80;6.05;;;0.50;99.90;;;;;;4981163;28;20042;-91
2022/02/12 07:59:59;;;;;;;18.17;6.88;;;0.60;99.90;;;;;;4980460;28;20507;-92
2022/02/12 08:02:24;;;;;;;16.02;6.07;;;0.70;99.90;;;;;;4980160;28;20365;-90
2022/02/12 08:04:50;;;;;;;14.70;6.68;;;0.80;99.90;;;;;;4980622;28;20090;-91
2022/02/12 08:07:28;;;;;;;18.08;6.72;;;0.80;99.90;;;;;;4980824;28;20057;-93
2022/02/12 08:09:57;;;;;;;16.42;7.00;;;0.90;99.90;;;;;;4981201;28;20045;-92
2022/02/12 08:12:24;;;;;;;14.57;6.50;;;1.00;99.90;;;;;;4980159;28;20038;-89
2022/02/12 08:14:51;;;;;;;17.20;6.85;;;1.10;99.90;;;;;;4980529;28;20027;-92
2022/02/12 08:17:19;;;;;;;15.88;6.65;;;1.10;99.90;;;;;;4980965;28;20100;-92
2022/02/12 08:19:46;;;;;;;14.27;6.10;;;1.20;99.90;;;;;;4980330;28;20121;-92
2022/02/12 08:22:12;;;;;;;15.82;5.80;;;1.20;99.90;;;;;;4981588;28;20038;-91
2022/02/12 08:24:38;;;;;;;17.05;6.60;;;1.20;99.90;;;;;;4982058;28;20039;-93
2022/02/12 08:27:05;;;;;;;15.23;6.80;;;1.30;99.90;;;;;;4982706;28;20038;-92
2022/02/12 08:29:31;;;;;;;17.83;6.60;;;1.40;99.90;;;;;;4976604;28;20090;-92
2022/02/12 08:32:01;;;;;;;12.75;6.13;;;1.50;99.90;;;;;;4979990;28;20039;-92
2022/02/12 08:34:28;;;;;;;16.98;6.35;;;1.50;99.90;;;;;;4981038;28;20030;-92
2022/02/12 08:36:55;;;;;;;14.60;6.47;;;1.60;99.90;;;;;;4981369;28;20483;-92
2022/02/12 08:39:21;;;;;;;16.15;6.18;;;1.70;99.90;;;;;;4982001;28;20038;-90
2022/02/12 08:41:47;;;;;;;14.90;6.38;;;1.70;99.90;;;;;;4981239;28;20061;-92
2022/02/12 08:44:14;;;;;;;14.15;6.38;;;1.70;99.90;;;;;;4981090;28;20057;-92
2022/02/12 08:46:39;;;;;;;14.40;5.68;;;1.80;99.90;;;;;;4979725;28;20085;-91
2022/02/12 08:49:06;;;;;;;22.20;6.53;;;1.80;99.90;;;;;;4980765;28;20031;-91
2022/02/12 08:51:39;;;;;;;14.55;6.35;;;1.80;99.90;;;;;;4979507;28;20031;-92
2022/02/12 08:54:06;;;;;;;13.45;6.22;;;1.90;99.90;;;;;;4979166;28;20038;-91
2022/02/12 08:56:33;;;;;;;17.25;6.90;;;2.00;99.90;;;;;;4980650;28;20038;-91
2022/02/12 08:58:59;;;;;;;13.15;5.75;;;2.00;99.90;;;;;;4980885;28;20037;-91
2022/02/12 09:01:27;;;;;;;13.80;6.35;;;2.00;99.90;;;;;;4981520;28;20550;-93
2022/02/12 09:03:52;;;;;;;15.48;6.20;;;2.10;99.90;;;;;;4981458;28;20476;-91
2022/02/12 09:06:18;;;;;;;13.10;5.95;;;2.10;99.90;;;;;;4979797;28;20125;-91
2022/02/12 09:08:48;;;;;;;17.05;6.18;;;2.20;99.90;;;;;;4979618;28;20480;-92
2022/02/12 09:11:14;;;;;;;16.65;6.20;;;2.20;99.90;;;;;;4979832;28;20049;-91
2022/02/12 09:13:39;;;;;;;20.02;6.85;;;2.30;99.90;;;;;;4980176;28;20058;-90
2022/02/12 09:16:05;;;;;;;21.25;6.95;;;2.40;99.90;;;;;;4978474;28;20492;-91
2022/02/12 09:18:31;;;;;;;15.80;6.13;;;2.50;99.90;;;;;;4979009;28;20042;-91
2022/02/12 09:20:56;;;;;;;15.30;6.13;;;2.60;99.90;;;;;;4979313;28;20065;-91
2022/02/12 09:23:23;;;;;;;16.65;5.80;;;2.70;99.90;;;;;;4983088;28;20417;-91
2022/02/12 09:25:48;;;;;;;14.93;5.30;;;2.90;99.90;;;;;;4982380;28;20045;-91
2022/02/12 09:28:14;;;;;;;14.30;5.00;;;3.60;99.90;;;;;;4975793;28;20047;-91
2022/02/12 09:30:40;;;;;;;14.88;5.10;;;4.80;99.90;;;;;;4974991;28;20329;-94
2022/02/12 09:33:06;;;;;;;14.05;4.63;;;6.30;99.90;;;;;;4978627;28;20085;-92
2022/02/12 09:35:33;;;;;;;17.67;4.53;;;7.30;99.90;;;;;;4995407;28;20034;-94
2022/02/12 09:38:00;;;;;;;13.55;4.15;;;8.20;99.90;;;;;;4979495;28;20113;-92
2022/02/12 09:40:27;;;;;;;12.27;4.65;;;8.70;99.90;;;;;;4978739;28;20504;-91
2022/02/12 09:42:58;;;;;;;13.50;4.28;;;9.10;99.90;;;;;;4978508;28;20035;-93
2022/02/12 09:45:29;;;;;;;11.80;4.15;;;9.30;99.90;;;;;;4978480;28;20404;-94
2022/02/12 09:47:55;;;;;;;13.27;4.38;;;9.70;99.90;;;;;;4976909;28;20030;-91
2022/02/12 09:50:22;;;;;;;10.40;3.92;;;10.10;99.90;;;;;;4978039;28;20672;-90
2022/02/12 09:52:52;;;;;;;11.38;3.42;;;10.20;99.90;;;;;;4978432;28;20050;-94
2022/02/12 09:55:20;;;;;;;11.88;4.07;;;10.70;99.90;;;;;;4978756;28;20057;-93
2022/02/12 09:57:46;;;;;;;16.75;4.35;;;11.10;99.90;;;;;;4977690;28;20503;-93
2022/02/12 10:00:17;;;;;;;9.88;3.90;;;11.40;99.90;;;;;;5022709;23;20021;-92
2022/02/12 10:02:44;;;;;;;12.63;3.72;;;11.40;99.90;;;;;;4996804;28;20042;-93
2022/02/12 10:05:18;;;;;;;8.35;3.05;;;11.50;99.90;;;;;;4978850;28;20096;-92
2022/02/12 10:07:47;;;;;;;;;;;11.70;99.90;;;;;;4977556;28;20392;-90
2022/02/12 10:10:19;;;;;;;9.65;3.42;;;11.80;99.90;;;;;;4977197;28;19918;-91
2022/02/12 10:12:45;;;;;;;10.18;3.38;;;11.90;99.90;;;;;;4978782;28;20066;-90
2022/02/12 10:15:29;;;;;;;11.30;3.75;;;12.10;99.90;;;;;;4977968;28;20034;-89
2022/02/12 10:17:59;;;;;;;12.35;3.38;;;12.30;99.90;;;;;;4977057;28;20045;-91
2022/02/12 10:20:33;;;;;;;8.98;2.95;;;12.70;99.90;;;;;;4975576;28;20041;-90
2022/02/12 10:23:09;;;;;;;15.77;3.63;;;12.90;99.90;;;;;;4974465;28;20034;-91
2022/02/12 10:25:37;;;;;;;9.68;2.85;;;13.30;99.90;;;;;;4974727;28;20049;-91
2022/02/12 10:28:04;;;;;;;9.82;3.67;;;12.80;99.90;;;;;;4974342;28;20038;-93
2022/02/12 10:30:30;;;;;;;11.00;3.50;;;12.90;99.90;;;;;;4973538;28;20050;-92
2022/02/12 10:33:01;;;;;;;9.80;3.25;;;13.20;99.90;;;;;;4975296;28;20066;-92
2022/02/12 10:35:28;;;;;;;11.30;3.05;;;13.30;99.90;;;;;;4975806;28;20035;-90
2022/02/12 10:38:04;;;;;;;8.63;3.58;;;13.10;99.90;;;;;;4975849;28;20042;-92
2022/02/12 10:40:31;;;;;;;11.25;3.65;;;13.20;98.50;;;;;;4977262;28;20126;-92
2022/02/12 10:42:59;;;;;;;11.43;3.33;;;13.40;98.00;;;;;;4978986;28;20540;-88
2022/02/12 10:45:26;;;;;;;13.57;3.50;;;13.70;98.10;;;;;;4980120;28;20061;-91
2022/02/12 10:47:54;;;;;;;11.60;3.45;;;13.80;97.60;;;;;;4979279;28;20481;-92
2022/02/12 10:50:23;;;;;;;11.88;3.33;;;14.00;96.70;;;;;;4996638;28;20093;-89
2022/02/12 10:52:51;;;;;;;10.55;2.78;;;14.20;95.80;;;;;;4977742;28;20476;-92
2022/02/12 10:55:31;;;;;;;7.70;3.00;;;14.00;96.00;;;;;;4978706;28;20034;-93
2022/02/12 10:57:59;;;;;;;9.75;3.08;;;13.20;96.60;;;;;;4979766;28;20070;-91
2022/02/12 11:00:26;;;;;;;9.88;2.63;;;12.50;97.00;;;;;;4979397;28;20125;-92
2022/02/12 11:02:54;;;;;;;14.48;3.08;;;11.70;98.20;;;;;;5015158;28;20551;-91
2022/02/12 11:05:24;;;;;;;14.35;3.88;;;11.20;98.70;;;;;;4996563;28;20072;-92
2022/02/12 11:07:51;;;;;;;12.18;3.10;;;10.70;99.30;;;;;;4997513;28;20112;-93
2022/02/12 11:10:17;;;;;;;11.48;3.30;;;10.80;99.90;;;;;;4998002;28;20036;-94
2022/02/12 11:12:43;;;;;;;11.40;3.10;;;11.40;99.90;;;;;;4997914;28;20029;-92
2022/02/12 11:15:10;;;;;;;8.95;2.90;;;12.20;99.90;;;;;;4997749;28;20036;-92
2022/02/12 11:17:36;;;;;;;9.50;3.33;;;12.90;99.90;;;;;;4998936;28;20241;-93
2022/02/12 11:20:02;;;;;;;9.93;3.40;;;13.60;98.40;;;;;;5000911;28;20490;-92
2022/02/12 11:22:28;;;;;;;10.32;3.90;;;14.00;97.90;;;;;;5001463;28;20116;-92
2022/02/12 11:24:54;;;;;;;10.65;3.40;;;14.20;97.00;;;;;;5000219;28;20384;-91
2022/02/12 11:27:27;;;;;;;9.05;2.72;;;14.30;95.60;;;;;;4999963;28;20038;-92
2022/02/12 11:30:14;;;;;;;13.25;3.40;;;14.60;96.40;;;;;;4999566;28;20132;-93
2022/02/12 11:32:46;;;;;;;9.73;2.80;;;15.20;95.20;;;;;;5000397;28;20038;-94
2022/02/12 11:35:12;;;;;;;7.97;3.42;;;15.30;94.50;;;;;;5000109;28;20040;-93
2022/02/12 11:37:40;;;;;;;10.68;2.83;;;15.20;94.20;;;;;;4999308;28;20042;-94
2022/02/12 11:40:24;;;;;;;11.88;2.97;;;15.30;94.80;;;;;;5000490;28;20033;-92
2022/02/12 11:42:59;;;;;;;10.88;3.03;;;15.60;95.30;;;;;;5000143;28;20065;-93
2022/02/12 11:45:37;;;;;;;7.03;2.42;;;16.00;95.10;;;;;;4999580;28;20042;-94
2022/02/12 11:48:29;;;;;;;6.32;2.20;;;16.30;94.60;;;;;;5001400;28;20492;-93
2022/02/12 11:51:08;;;;;;;7.57;2.78;;;16.20;93.30;;;;;;5000013;28;20030;-91
2022/02/12 11:53:38;;;;;;;11.25;2.53;;;16.40;93.90;;;;;;5000678;28;20100;-92
2022/02/12 11:56:13;;;;;;;10.35;3.47;;;16.60;92.50;;;;;;5000385;28;20038;-92
2022/02/12 11:58:45;;;;;;;9.50;2.80;;;16.30;90.30;;;;;;5000481;28;20555;-93
2022/02/12 12:01:23;;;;;;;9.98;2.40;;;16.20;91.50;;;;;;5000099;28;20046;-92
2022/02/12 12:04:12;;;;;;;11.77;3.17;;;16.40;92.20;;;;;;5000452;28;20065;-93
2022/02/12 12:06:39;;;;;;;7.55;2.50;;;16.70;91.30;;;;;;4988063;28;20054;-93
2022/02/12 12:09:05;;;;;;;11.85;4.65;;;16.90;91.80;;;;;;5000657;28;20037;-94
2022/02/12 12:11:31;;;;;;;7.82;2.60;;;17.10;91.00;;;;;;4996667;28;20033;-92
2022/02/12 12:13:59;;;;;;;11.45;2.85;;;17.20;90.10;;;;;;4998872;28;20034;-93
2022/02/12 12:16:34;;;;;;;8.18;2.33;;;16.90;88.90;;;;;;4998315;28;20034;-93
2022/02/12 12:19:01;;;;;;;9.35;2.60;;;16.80;89.70;;;;;;4999921;28;20022;-94
2022/02/12 12:21:29;;;;;;;8.85;2.53;;;16.80;89.40;;;;;;4996739;28;20038;-93
2022/02/12 12:24:00;;;;;;;8.60;2.53;;;16.70;89.20;;;;;;4998931;28;20057;-94
2022/02/12 12:26:37;;;;;;;11.30;3.53;;;16.60;87.60;;;;;;4998022;28;20124;-91
2022/02/12 12:32:19;;;;;;;8.68;2.70;;;16.00;85.30;;;;;;5011899;28;20049;-93
2022/02/12 12:34:58;;;;;;;9.88;2.67;;;16.00;86.60;;;;;;5015727;28;20037;-94
2022/02/12 12:37:25;;;;;;;7.72;2.50;;;16.00;86.50;;;;;;5015580;28;20403;-93
2022/02/12 12:40:17;;;;;;;8.65;2.70;;;16.00;86.80;;;;;;5017710;28;20034;-96
2022/02/12 12:42:44;;;;;;;;;;;16.10;86.00;;;;;;5030386;28;20204;-91
2022/02/12 12:45:12;;;;;;;8.70;2.53;;;16.00;82.20;;;;;;4998552;28;19969;-92
2022/02/12 12:47:48;;;;;;;13.80;2.72;;;15.90;85.20;;;;;;4996267;28;20054;-92
2022/02/12 12:50:16;;;;;;;9.00;3.00;;;16.00;86.20;;;;;;4995722;28;20031;-94
2022/02/12 12:52:42;;;;;;;8.50;2.95;;;16.40;88.00;;;;;;4997715;28;20055;-94
2022/02/12 12:55:16;;;;;;;8.95;2.60;;;16.70;85.80;;;;;;5001694;28;20030;-93
2022/02/12 12:57:54;;;;;;;9.25;2.95;;;16.90;85.20;;;;;;5021801;28;20066;-94
2022/02/12 13:00:26;;;;;;;8.90;2.92;;;16.90;81.80;;;;;;5003661;28;20039;-92
2022/02/12 13:02:55;;;;;;;9.73;2.50;;;16.70;79.40;;;;;;5003598;28;20129;-91
2022/02/12 13:05:33;;;;;;;7.40;2.53;;;16.40;81.60;;;;;;5002060;28;20034;-90
2022/02/12 13:08:01;;;;;;;8.00;2.30;;;16.60;82.40;;;;;;5008215;28;20061;-90
2022/02/12 13:10:32;;;;;;;7.28;2.42;;;16.80;81.30;;;;;;5005834;28;20052;-92
2022/02/12 13:13:11;;;;;;;8.70;2.50;;;16.80;81.40;;;;;;5007158;28;20094;-91
2022/02/12 13:15:39;;;;;;;9.25;2.53;;;16.70;82.00;;;;;;5004424;28;20056;-92
2022/02/12 13:18:09;;;;;;;7.00;2.22;;;16.70;82.50;;;;;;5003653;28;20041;-92
2022/02/12 13:20:36;;;;;;;7.32;1.98;;;16.50;82.40;;;;;;5008626;28;20033;-92
2022/02/12 13:23:07;;;;;;;7.75;2.50;;;16.20;83.00;;;;;;5007021;28;20299;-91
2022/02/12 13:25:43;;;;;;;8.95;2.20;;;15.90;80.80;;;;;;5005566;28;20472;-91
2022/02/12 13:28:27;;;;;;;8.90;2.47;;;15.60;80.30;;;;;;5006579;28;20036;-91
2022/02/12 13:30:53;;;;;;;9.20;2.63;;;15.70;82.50;;;;;;5024222;28;20065;-94
2022/02/12 13:33:29;;;;;;;7.68;2.28;;;16.10;83.10;;;;;;4998195;28;20042;-93
2022/02/12 13:35:57;;;;;;;7.68;2.60;;;16.40;79.90;;;;;;4999326;28;20046;-93
2022/02/12 13:38:34;;;;;;;7.57;2.38;;;16.40;80.80;;;;;;5000160;28;20041;-96
2022/02/12 13:41:00;;;;;;;8.93;2.47;;;16.20;77.40;;;;;;4997567;28;20041;-92
2022/02/12 13:43:55;;;;;;;6.13;2.40;;;16.20;79.40;;;;;;4998427;28;20049;-95
2022/02/12 14:01:15;;;;;;;7.70;3.23;;;15.40;81.40;;;;;;1202289;23;20270;-89
2022/02/12 14:04:13;;;;;;;7.78;2.65;;;15.20;76.40;;;;;;5040339;28;20345;-95
2022/02/12 14:06:30;;;;;;;9.52;3.13;;;14.70;79.60;;;;;;5045516;28;20301;-93
2022/02/12 14:09:44;;;;;;;7.57;3.17;;;13.90;80.80;;;;;;5052347;28;20106;-96
2022/02/12 14:12:10;;;;;;;6.88;2.78;;;13.30;77.60;;;;;;5006434;28;20026;-92
2022/02/12 14:14:36;;;;;;;12.15;3.45;;;12.50;84.00;;;;;;4981197;28;20050;-93
2022/02/12 14:17:01;;;;;;;10.98;3.78;;;11.90;86.00;;;;;;5022807;28;20037;-92
2022/02/12 14:19:27;;;;;;;7.80;3.10;;;11.50;84.20;;;;;;5050408;28;20036;-93
2022/02/12 14:55:24;;;;;;;9.73;3.90;;;8.80;95.80;;;;;;5016534;28;20157;-93
2022/02/12 14:57:50;;;;;;;10.85;3.35;;;8.70;96.50;;;;;;5001566;28;20125;-93
2022/02/12 15:00:16;;;;;;;10.20;4.05;;;8.60;96.10;;;;;;5004613;28;20022;-90
2022/02/12 15:02:45;;;;;;;9.93;3.20;;;8.60;97.20;;;;;;5004539;28;20042;-92
2022/02/12 15:05:15;;;;;;;12.50;4.05;;;8.50;98.20;;;;;;5005495;28;20064;-94
2022/02/12 15:07:41;;;;;;;12.10;4.07;;;8.60;96.80;;;;;;5007104;28;20041;-94
2022/02/12 15:10:12;;;;;;;11.30;4.35;;;8.40;96.10;;;;;;5003293;28;20030;-94
2022/02/12 15:12:38;;;;;;;11.65;4.05;;;8.40;97.30;;;;;;5024127;28;20049;-91
2022/02/12 15:15:04;;;;;;;9.70;3.90;;;8.30;97.50;;;;;;5023820;28;20030;-92
2022/02/12 15:17:36;;;;;;;8.63;3.38;;;8.30;98.50;;;;;;5021079;28;20053;-92
2022/02/12 15:20:02;;;;;;;8.88;4.32;;;8.30;99.10;;;;;;5019494;28;20029;-91
2022/02/12 15:22:29;;;;;;;9.75;3.78;;;8.30;98.50;;;;;;5021977;28;20445;-92
2022/02/12 15:24:56;;;;;;;10.32;3.72;;;8.20;97.90;;;;;;5020389;28;20029;-94
2022/02/12 15:27:30;;;;;;;10.95;3.97;;;8.10;98.90;;;;;;5023465;28;20061;-90
2022/02/12 15:29:58;;;;;;;10.93;4.43;;;8.00;99.00;;;;;;5022119;28;20045;-91
2022/02/12 15:32:24;;;;;;;11.05;3.70;;;8.00;99.40;;;;;;5018294;28;20132;-91
2022/02/12 21:19:11;;;;;;;12.55;5.35;;;3.70;99.90;;;;;;5053770;28;20053;-91
2022/02/12 21:21:37;;;;;;;11.32;5.35;;;3.70;99.90;;;;;;5052943;28;20040;-91
2022/02/12 21:24:04;;;;;;;9.30;4.63;;;3.70;99.90;;;;;;5054279;28;20298;-89
2022/02/12 21:26:32;;;;;;;8.15;4.45;;;3.70;99.90;;;;;;5037195;28;20033;-92
2022/02/12 21:28:57;;;;;;;13.43;5.32;;;3.70;99.90;;;;;;5038025;28;20574;-89
2022/02/12 21:31:26;;;;;;;9.43;4.30;;;3.70;99.90;;;;;;5041172;28;20060;-91
2022/02/12 21:33:55;;;;;;;8.52;4.53;;;3.70;99.90;;;;;;5038799;28;20029;-89
2022/02/12 21:37:08;;;;;;;8.90;4.90;;;3.70;99.90;;;;;;5037473;28;20033;-92
2022/02/12 21:39:34;;;;;;;12.25;4.90;;;3.60;99.90;;;;;;5057349;28;20029;-93
2022/02/12 21:42:02;;;;;;;11.73;5.20;;;3.60;99.90;;;;;;5040642;28;20549;-91
2022/02/12 21:44:32;;;;;;;10.40;5.63;;;3.60;99.90;;;;;;5043036;28;20029;-91
2022/02/12 21:47:02;;;;;;;10.10;4.70;;;3.60;99.90;;;;;;5043584;28;20025;-91
2022/02/12 21:49:34;;;;;;;12.57;4.50;;;3.60;99.90;;;;;;5043900;28;20099;-91
2022/02/12 21:52:00;;;;;;;14.75;5.10;;;3.60;99.90;;;;;;5039476;28;20053;-90
2022/02/12 21:54:26;;;;;;;11.35;5.13;;;3.60;99.90;;;;;;5036319;28;20075;-90
2022/02/12 21:56:52;;;;;;;11.13;5.22;;;3.60;99.90;;;;;;5036877;28;20045;-92
2022/02/12 21:59:18;;;;;;;9.60;5.03;;;3.50;99.90;;;;;;5036737;28;20108;-90